createdAt,value
2022-12-04T00:01:29.425Z,2.14
2022-12-04T00:04:01.345Z,2.24
2022-12-04T00:06:30.641Z,2.19
2022-12-04T00:08:58.924Z,2.23
2022-12-04T00:11:30.366Z,2.24
2022-12-04T00:14:06.107Z,2.28
2022-12-04T00:16:36.870Z,2.36
2022-12-04T00:19:05.615Z,2.36
2022-12-04T00:21:33.790Z,2.27
2022-12-04T00:24:02.220Z,2.33
2022-12-04T00:26:31.793Z,2.43
2022-12-04T00:29:00.356Z,2.36
2022-12-04T00:31:31.622Z,2.23
2022-12-04T00:34:02.245Z,2.31
2022-12-04T00:36:30.906Z,2.37
2022-12-04T00:39:01.013Z,2.41
2022-12-04T00:41:30.873Z,2.42
2022-12-04T00:43:59.329Z,2.43
2022-12-04T00:46:28.127Z,2.47
2022-12-04T00:48:56.477Z,2.39
2022-12-04T00:51:26.771Z,2.40
2022-12-04T00:53:55.460Z,2.36
2022-12-04T00:56:26.391Z,2.37
2022-12-04T00:58:55.602Z,2.41
2022-12-04T01:01:24.437Z,2.43
2022-12-04T01:03:53.534Z,2.33
2022-12-04T01:06:23.492Z,2.39
2022-12-04T01:08:54.714Z,2.33
2022-12-04T01:11:24.450Z,2.34
2022-12-04T01:13:53.116Z,2.28
2022-12-04T01:16:23.718Z,2.27
2022-12-04T01:18:52.850Z,2.22
2022-12-04T01:21:21.471Z,2.15
2022-12-04T01:23:49.976Z,2.18
2022-12-04T01:26:19.480Z,2.18
2022-12-04T01:28:47.627Z,2.14
2022-12-04T01:31:19.124Z,2.12
2022-12-04T01:33:48.365Z,2.15
2022-12-04T01:36:18.358Z,2.20
2022-12-04T01:38:46.698Z,2.26
2022-12-04T01:41:16.511Z,2.23
2022-12-04T01:43:46.058Z,2.28
2022-12-04T01:46:14.291Z,2.26
2022-12-04T01:48:47.807Z,2.25
2022-12-04T01:51:20.434Z,2.21
2022-12-04T01:53:51.902Z,2.26
2022-12-04T01:56:21.122Z,2.08
2022-12-04T01:58:56.050Z,2.23
2022-12-04T02:01:24.632Z,2.23
2022-12-04T02:03:52.873Z,2.36
2022-12-04T02:06:21.179Z,2.36
2022-12-04T02:08:49.313Z,2.23
2022-12-04T02:11:29.036Z,2.24
2022-12-04T02:14:08.922Z,2.23
2022-12-04T02:16:48.305Z,2.21
2022-12-04T02:19:40.706Z,2.25
2022-12-04T02:22:21.018Z,2.23
2022-12-04T02:24:58.589Z,2.17
2022-12-04T02:27:44.431Z,2.18
2022-12-04T02:30:15.330Z,2.23
2022-12-04T02:32:48.391Z,2.15
2022-12-04T02:35:21.916Z,2.14
2022-12-04T02:37:55.837Z,2.17
2022-12-04T02:40:29.416Z,2.15
2022-12-04T02:43:04.839Z,2.15
2022-12-04T02:45:38.443Z,2.21
2022-12-04T02:48:08.951Z,2.18
2022-12-04T02:50:41.156Z,2.16
2022-12-04T02:53:14.224Z,2.19
2022-12-04T02:55:45.158Z,2.27
2022-12-04T02:58:17.981Z,2.29
2022-12-04T03:00:49.603Z,2.44
2022-12-04T03:03:22.758Z,2.53
2022-12-04T03:05:59.136Z,2.36
2022-12-04T03:08:30.826Z,2.41
2022-12-04T03:11:02.006Z,2.40
2022-12-04T03:13:36.810Z,2.38
2022-12-04T03:16:09.434Z,2.41
2022-12-04T03:18:41.141Z,2.36
2022-12-04T03:21:14.418Z,2.39
2022-12-04T03:23:47.561Z,2.46
2022-12-04T03:26:24.311Z,2.51
2022-12-04T03:28:58.041Z,2.58
2022-12-04T03:31:36.850Z,2.52
2022-12-04T03:34:08.878Z,2.57
2022-12-04T03:36:42.785Z,2.57
2022-12-04T03:39:19.242Z,2.48
2022-12-04T03:41:57.290Z,2.50
2022-12-04T03:44:29.017Z,2.53
2022-12-04T03:47:01.122Z,2.44
2022-12-04T03:49:39.908Z,2.52
2022-12-04T03:52:16.064Z,2.55
2022-12-04T03:54:48.182Z,2.60
2022-12-04T03:57:19.978Z,2.64
2022-12-04T03:59:56.061Z,2.59
2022-12-04T04:02:29.995Z,2.71
2022-12-04T04:05:02.242Z,2.70
2022-12-04T04:07:35.822Z,2.61
2022-12-04T04:10:09.701Z,2.64
2022-12-04T04:12:42.512Z,2.61
2022-12-04T04:15:32.770Z,2.70
2022-12-04T04:18:20.938Z,2.79
2022-12-04T04:21:12.020Z,2.85
2022-12-04T04:24:02.155Z,2.91
2022-12-04T04:26:35.565Z,2.94
2022-12-04T04:29:03.921Z,2.90
2022-12-04T04:31:40.603Z,2.93
2022-12-04T04:34:20.745Z,2.94
2022-12-04T04:37:00.620Z,2.97
2022-12-04T04:39:33.278Z,2.96
2022-12-04T04:42:08.565Z,3.02
2022-12-04T04:44:42.680Z,3.13
2022-12-04T04:47:18.375Z,3.22
2022-12-04T04:49:50.243Z,3.05
2022-12-04T04:52:21.487Z,3.13
2022-12-04T04:54:49.648Z,3.23
2022-12-04T04:57:27.713Z,3.42
2022-12-04T04:59:55.897Z,3.33
2022-12-04T05:02:26.943Z,3.33
2022-12-04T05:04:55.452Z,3.39
2022-12-04T05:07:23.620Z,3.40
2022-12-04T05:09:51.728Z,3.39
2022-12-04T05:12:19.899Z,3.31
2022-12-04T05:14:48.519Z,3.37
2022-12-04T05:17:16.933Z,3.39
2022-12-04T05:19:56.807Z,3.28
2022-12-04T05:22:27.940Z,3.17
2022-12-04T05:24:56.156Z,3.05
2022-12-04T05:27:25.022Z,3.04
2022-12-04T05:29:54.390Z,2.99
2022-12-04T05:32:23.345Z,2.97
2022-12-04T05:34:54.733Z,3.00
2022-12-04T05:37:23.430Z,3.03
2022-12-04T05:39:51.660Z,2.94
2022-12-04T05:42:19.922Z,2.92
2022-12-04T05:44:49.431Z,3.08
2022-12-04T05:47:17.688Z,3.10
2022-12-04T05:49:45.832Z,2.97
2022-12-04T05:52:15.316Z,3.09
2022-12-04T05:54:43.402Z,3.03
2022-12-04T05:57:11.435Z,3.19
2022-12-04T05:59:39.631Z,3.26
2022-12-04T06:02:09.003Z,3.24
2022-12-04T06:04:38.792Z,3.27
2022-12-04T06:07:07.077Z,3.31
2022-12-04T06:09:36.667Z,3.30
2022-12-04T06:12:05.781Z,3.34
2022-12-04T06:14:39.308Z,3.49
2022-12-04T06:17:07.939Z,3.62
2022-12-04T06:19:36.190Z,3.62
2022-12-04T06:22:04.885Z,3.65
2022-12-04T06:24:33.020Z,3.73
2022-12-04T06:27:26.642Z,3.77
2022-12-04T06:29:50.689Z,3.78
2022-12-04T06:32:21.869Z,3.78
2022-12-04T06:34:52.793Z,3.74
2022-12-04T06:37:21.723Z,3.77
2022-12-04T06:39:50.017Z,3.71
2022-12-04T06:42:19.894Z,3.69
2022-12-04T06:44:47.938Z,3.60
2022-12-04T06:47:16.073Z,3.61
2022-12-04T06:49:46.782Z,3.65
2022-12-04T06:52:15.218Z,3.70
2022-12-04T06:54:43.402Z,3.70
2022-12-04T06:57:11.485Z,3.67
2022-12-04T06:59:41.454Z,3.70
2022-12-04T07:02:11.057Z,3.83
2022-12-04T07:04:39.379Z,3.83
2022-12-04T07:07:09.929Z,3.83
2022-12-04T07:09:38.762Z,3.92
2022-12-04T07:12:07.716Z,3.91
2022-12-04T07:14:35.890Z,3.78
2022-12-04T07:17:05.565Z,3.73
2022-12-04T07:19:33.751Z,3.85
2022-12-04T07:22:02.230Z,3.82
2022-12-04T07:24:30.249Z,3.87
2022-12-04T07:26:58.563Z,3.86
2022-12-04T07:29:26.772Z,3.83
2022-12-04T07:31:55.054Z,3.79
2022-12-04T07:34:24.638Z,3.92
2022-12-04T07:36:52.939Z,3.92
2022-12-04T07:39:21.058Z,3.98
2022-12-04T07:41:49.232Z,4.11
2022-12-04T07:44:17.426Z,4.10
2022-12-04T07:46:45.555Z,4.05
2022-12-04T07:49:14.083Z,4.04
2022-12-04T07:51:43.593Z,4.13
2022-12-04T07:54:11.887Z,4.22
2022-12-04T07:56:39.919Z,4.21
2022-12-04T07:59:08.068Z,4.01
2022-12-04T08:01:36.230Z,4.03
2022-12-04T08:04:04.648Z,4.05
2022-12-04T08:06:36.609Z,3.98
2022-12-04T08:09:10.146Z,4.15
2022-12-04T08:11:38.661Z,4.13
2022-12-04T08:14:08.997Z,4.21
2022-12-04T08:16:37.284Z,4.16
2022-12-04T08:19:06.095Z,4.12
2022-12-04T08:21:34.935Z,4.14
2022-12-04T08:24:03.867Z,4.13
2022-12-04T08:26:34.571Z,4.20
2022-12-04T08:29:03.306Z,4.22
2022-12-04T08:31:33.902Z,4.28
2022-12-04T08:34:04.441Z,4.34
2022-12-04T08:36:33.199Z,4.40
2022-12-04T08:39:01.651Z,4.50
2022-12-04T08:41:30.237Z,4.48
2022-12-04T08:44:00.161Z,4.51
2022-12-04T08:46:29.647Z,4.48
2022-12-04T08:48:58.651Z,4.43
2022-12-04T08:51:28.793Z,4.43
2022-12-04T08:53:58.703Z,4.59
2022-12-04T08:56:28.454Z,4.68
2022-12-04T08:58:57.079Z,4.65
2022-12-04T09:01:27.168Z,4.69
2022-12-04T09:03:55.883Z,4.73
2022-12-04T09:06:24.769Z,4.78
2022-12-04T09:08:55.156Z,4.88
2022-12-04T09:11:25.280Z,4.95
2022-12-04T09:13:53.996Z,5.16
2022-12-04T09:16:24.890Z,5.14
2022-12-04T09:18:54.565Z,5.26
2022-12-04T09:21:24.384Z,5.27
2022-12-04T09:23:52.809Z,5.33
2022-12-04T09:26:23.673Z,5.47
2022-12-04T09:28:53.033Z,5.32
2022-12-04T09:31:22.426Z,5.40
2022-12-04T09:33:50.887Z,5.56
2022-12-04T09:36:20.888Z,5.55
2022-12-04T09:38:50.756Z,5.57
2022-12-04T09:42:02.474Z,5.52
2022-12-04T09:44:35.033Z,5.43
2022-12-04T09:47:06.129Z,5.46
2022-12-04T09:49:38.509Z,5.52
2022-12-04T09:52:28.359Z,5.47
2022-12-04T09:54:58.361Z,5.48
2022-12-04T09:57:43.595Z,5.40
2022-12-04T10:00:17.151Z,5.49
2022-12-04T10:02:49.946Z,5.52
2022-12-04T10:05:23.618Z,5.51
2022-12-04T10:08:04.826Z,5.44
2022-12-04T10:10:39.420Z,5.44
2022-12-04T10:13:22.526Z,5.47
2022-12-04T10:15:58.104Z,5.48
2022-12-04T10:18:41.921Z,5.57
2022-12-04T10:21:39.403Z,5.54
2022-12-04T10:24:23.876Z,5.64
2022-12-04T10:26:53.403Z,5.43
2022-12-04T10:29:25.857Z,5.55
2022-12-04T10:31:57.407Z,5.39
2022-12-04T10:34:29.432Z,5.47
2022-12-04T10:37:03.076Z,5.43
2022-12-04T10:39:38.249Z,5.53
2022-12-04T10:42:13.641Z,5.69
2022-12-04T10:44:41.916Z,5.67
2022-12-04T10:47:13.592Z,5.61
2022-12-04T10:49:42.471Z,5.60
2022-12-04T10:52:12.674Z,5.57
2022-12-04T10:54:49.452Z,5.61
2022-12-04T10:57:18.532Z,5.59
2022-12-04T10:59:52.622Z,5.71
2022-12-04T11:02:24.356Z,5.72
2022-12-04T11:04:56.302Z,5.79
2022-12-04T11:07:27.333Z,5.81
2022-12-04T11:09:59.679Z,5.65
2022-12-04T11:12:27.920Z,5.72
2022-12-04T11:15:14.743Z,5.73
2022-12-04T11:17:43.037Z,5.72
2022-12-04T11:20:18.986Z,5.74
2022-12-04T11:22:53.471Z,5.80
2022-12-04T11:25:26.280Z,5.69
2022-12-04T11:27:57.110Z,5.67
2022-12-04T11:30:31.294Z,5.82
2022-12-04T11:33:00.105Z,5.90
2022-12-04T11:35:30.290Z,5.82
2022-12-04T11:38:01.485Z,5.80
2022-12-04T11:40:31.762Z,5.76
2022-12-04T11:43:03.865Z,5.67
2022-12-04T11:45:32.493Z,5.67
2022-12-04T11:48:04.039Z,5.60
2022-12-04T11:50:41.339Z,5.74
2022-12-04T11:53:16.852Z,5.65
2022-12-04T11:55:59.808Z,5.52
2022-12-04T11:58:52.805Z,5.47
2022-12-04T12:01:30.036Z,5.64
2022-12-04T12:04:23.445Z,5.64
2022-12-04T12:07:04.227Z,5.59
2022-12-04T12:09:39.475Z,5.64
2022-12-04T12:12:14.172Z,5.55
2022-12-04T12:14:50.947Z,5.58
2022-12-04T12:17:25.862Z,5.55
2022-12-04T12:20:15.041Z,5.42
2022-12-04T12:23:24.275Z,5.41
2022-12-04T12:25:59.760Z,5.35
2022-12-04T12:29:02.316Z,5.23
2022-12-04T12:31:47.606Z,5.31
2022-12-04T12:34:26.494Z,5.28
2022-12-04T12:37:00.848Z,5.25
2022-12-04T12:39:39.695Z,5.19
2022-12-04T12:42:14.761Z,5.23
2022-12-04T12:44:51.486Z,5.25
2022-12-04T12:47:22.513Z,5.26
2022-12-04T12:49:57.973Z,5.27
2022-12-04T12:52:32.103Z,5.17
2022-12-04T12:55:03.850Z,5.11
2022-12-04T12:57:37.140Z,5.13
2022-12-04T13:00:14.981Z,5.08
2022-12-04T13:02:48.647Z,5.09
2022-12-04T13:05:23.330Z,5.11
2022-12-04T13:08:00.336Z,5.07
2022-12-04T13:10:35.035Z,4.95
2022-12-04T13:13:09.010Z,4.99
2022-12-04T13:15:43.652Z,5.01
2022-12-04T13:18:21.661Z,5.02
2022-12-04T13:20:54.405Z,4.87
2022-12-04T13:23:47.135Z,4.95
2022-12-04T13:26:25.623Z,4.81
2022-12-04T13:28:59.090Z,4.90
2022-12-04T13:31:35.462Z,4.83
2022-12-04T13:34:30.391Z,4.94
2022-12-04T13:37:18.378Z,4.83
2022-12-04T13:40:29.132Z,4.82
2022-12-04T13:43:16.132Z,4.66
2022-12-04T13:45:47.301Z,4.66
2022-12-04T13:48:33.133Z,4.70
2022-12-04T13:51:25.575Z,4.70
2022-12-04T13:54:19.635Z,4.61
2022-12-04T13:56:49.881Z,4.64
2022-12-04T13:59:25.552Z,4.61
2022-12-04T14:01:56.494Z,4.62
2022-12-04T14:04:29.351Z,4.61
2022-12-04T14:07:00.616Z,4.67
2022-12-04T14:09:32.096Z,4.66
2022-12-04T14:12:03.182Z,4.64
2022-12-04T14:14:37.532Z,4.51
2022-12-04T14:17:06.226Z,4.57
2022-12-04T14:19:38.233Z,4.55
2022-12-04T14:22:06.536Z,4.51
2022-12-04T14:24:37.842Z,4.49
2022-12-04T14:27:33.884Z,4.43
2022-12-04T14:30:03.143Z,4.36
2022-12-04T14:32:34.985Z,4.41
2022-12-04T14:35:05.792Z,4.39
2022-12-04T14:37:37.998Z,4.35
2022-12-04T14:40:08.597Z,4.35
2022-12-04T14:42:39.824Z,4.32
2022-12-04T14:45:23.069Z,4.29
2022-12-04T14:48:06.034Z,4.33
2022-12-04T14:50:44.599Z,4.39
2022-12-04T14:53:25.284Z,4.37
2022-12-04T14:56:06.059Z,4.34
2022-12-04T14:58:39.201Z,4.31
2022-12-04T15:01:23.916Z,4.30
2022-12-04T15:03:58.129Z,4.38
2022-12-04T15:06:29.609Z,4.33
2022-12-04T15:09:20.488Z,4.34
2022-12-04T15:12:09.447Z,4.35
2022-12-04T15:14:42.467Z,4.30
2022-12-04T15:17:11.879Z,4.29
2022-12-04T15:19:41.107Z,4.21
2022-12-04T15:22:19.683Z,4.22
2022-12-04T15:24:47.887Z,4.25
2022-12-04T15:27:19.328Z,4.25
2022-12-04T15:29:49.250Z,4.24
2022-12-04T15:32:20.610Z,4.23
2022-12-04T15:34:52.948Z,4.25
2022-12-04T15:37:25.282Z,4.16
2022-12-04T15:39:54.258Z,4.18
2022-12-04T15:42:28.556Z,4.24
2022-12-04T15:45:01.329Z,4.22
2022-12-04T15:47:31.962Z,4.26
2022-12-04T15:50:10.501Z,4.25
2022-12-04T15:52:49.314Z,4.23
2022-12-04T15:55:19.992Z,4.28
2022-12-04T15:57:53.771Z,4.29
2022-12-04T16:00:27.634Z,4.23
2022-12-04T16:02:56.355Z,4.28
2022-12-04T16:05:37.652Z,4.28
2022-12-04T16:21:32.216Z,4.27
2022-12-04T16:24:03.632Z,4.23
2022-12-04T16:26:31.823Z,4.26
2022-12-04T16:29:00.448Z,4.35
2022-12-04T16:31:29.016Z,4.30
2022-12-04T16:33:57.176Z,4.32
2022-12-04T16:36:26.623Z,4.33
2022-12-04T16:38:54.957Z,4.29
2022-12-04T16:41:23.117Z,4.25
2022-12-04T16:43:55.482Z,4.28
2022-12-04T16:46:25.321Z,4.27
2022-12-04T16:48:53.846Z,4.27
2022-12-04T16:51:24.072Z,4.34
2022-12-04T16:53:55.024Z,4.30
2022-12-04T16:56:24.000Z,4.26
2022-12-04T16:58:52.351Z,4.33
2022-12-04T17:01:23.943Z,4.27
2022-12-04T17:03:53.234Z,4.19
2022-12-04T17:06:21.501Z,4.24
2022-12-04T17:08:49.744Z,4.24
2022-12-04T17:11:19.515Z,4.26
2022-12-04T17:13:47.631Z,4.32
2022-12-04T17:16:19.641Z,4.30
2022-12-04T17:18:48.196Z,4.26
2022-12-04T17:21:16.401Z,4.29
2022-12-04T17:23:45.041Z,4.23
2022-12-04T17:26:15.560Z,4.22
2022-12-04T17:28:45.238Z,4.22
2022-12-04T17:31:16.182Z,4.26
2022-12-04T17:33:45.488Z,4.26
2022-12-04T17:36:16.259Z,4.23
2022-12-04T17:38:45.202Z,4.21
2022-12-04T17:41:15.931Z,4.28
2022-12-04T17:43:45.699Z,4.30
2022-12-04T17:46:15.725Z,4.29
2022-12-04T17:48:44.558Z,4.30
2022-12-04T17:51:14.913Z,4.21
2022-12-04T17:53:43.272Z,4.24
2022-12-04T17:56:13.742Z,4.25
2022-12-04T17:58:42.061Z,4.21
2022-12-04T18:01:13.311Z,4.20
2022-12-04T18:03:43.628Z,4.16
2022-12-04T18:06:16.874Z,4.17
2022-12-04T18:08:50.095Z,4.18
2022-12-04T18:11:20.868Z,4.16
2022-12-04T18:13:49.619Z,4.16
2022-12-04T18:16:19.409Z,4.20
2022-12-04T18:18:48.243Z,4.17
2022-12-04T18:21:16.745Z,4.20
2022-12-04T18:23:46.090Z,4.22
2022-12-04T18:26:15.614Z,4.21
2022-12-04T18:28:44.978Z,4.22
2022-12-04T18:31:13.356Z,4.26
2022-12-04T18:33:43.689Z,4.20
2022-12-04T18:36:15.243Z,4.21
2022-12-04T18:38:43.843Z,4.23
2022-12-04T18:41:13.833Z,4.26
2022-12-04T18:43:45.327Z,4.19
2022-12-04T18:46:17.361Z,4.12
2022-12-04T18:48:48.152Z,4.11
2022-12-04T18:51:19.279Z,4.15
2022-12-04T18:53:48.499Z,4.12
2022-12-04T18:56:17.602Z,4.05
2022-12-04T18:58:46.822Z,4.01
2022-12-04T19:01:16.624Z,4.05
2022-12-04T19:03:48.019Z,4.02
2022-12-04T19:06:16.329Z,4.03
2022-12-04T19:08:44.756Z,4.05
2022-12-04T19:11:15.579Z,4.02
2022-12-04T19:13:44.211Z,4.03
2022-12-04T19:16:13.533Z,4.02
2022-12-04T19:18:42.306Z,4.04
2022-12-04T19:21:12.602Z,4.08
2022-12-04T19:23:40.829Z,4.07
2022-12-04T19:26:09.264Z,3.98
2022-12-04T19:28:38.143Z,3.97
2022-12-04T19:31:06.439Z,3.98
2022-12-04T19:33:34.566Z,4.01
2022-12-04T19:36:04.366Z,3.99
2022-12-04T19:38:34.783Z,4.04
2022-12-04T19:41:10.200Z,4.12
2022-12-04T19:43:39.434Z,4.06
2022-12-04T19:46:09.138Z,4.11
2022-12-04T19:48:38.201Z,4.06
2022-12-04T19:51:07.696Z,4.06
2022-12-04T19:53:41.066Z,4.08
2022-12-04T19:56:14.116Z,4.02
2022-12-04T19:58:42.660Z,4.04
2022-12-04T20:01:14.288Z,4.00
2022-12-04T20:03:42.875Z,4.03
2022-12-04T20:06:12.590Z,3.99
2022-12-04T20:08:42.977Z,3.99
2022-12-04T20:11:12.954Z,3.92
2022-12-04T20:13:41.556Z,3.85
2022-12-04T20:16:12.086Z,3.91
2022-12-04T20:18:42.505Z,3.90
2022-12-04T20:21:12.122Z,3.95
2022-12-04T20:23:43.222Z,3.87
2022-12-04T20:26:13.942Z,3.93
2022-12-04T20:28:43.005Z,3.89
2022-12-04T20:31:17.118Z,3.91
2022-12-04T20:33:46.208Z,3.93
2022-12-04T20:36:15.762Z,3.98
2022-12-04T20:38:45.778Z,3.98
2022-12-04T20:41:16.116Z,3.96
2022-12-04T20:43:44.998Z,3.96
2022-12-04T20:46:17.328Z,3.84
2022-12-04T20:48:48.629Z,3.86
2022-12-04T20:51:18.995Z,3.82
2022-12-04T20:53:49.842Z,3.90
2022-12-04T20:56:18.740Z,3.87
2022-12-04T20:58:47.424Z,3.85
2022-12-04T21:01:17.547Z,3.86
2022-12-04T21:03:47.119Z,3.82
2022-12-04T21:06:17.242Z,3.85
2022-12-04T21:08:56.818Z,3.86
2022-12-04T21:11:29.032Z,3.94
2022-12-04T21:14:16.091Z,3.87
2022-12-04T21:16:45.422Z,3.93
2022-12-04T21:19:15.763Z,3.97
2022-12-04T21:21:43.937Z,4.01
2022-12-04T21:24:14.051Z,3.96
2022-12-04T21:26:43.592Z,3.98
2022-12-04T21:29:12.374Z,3.97
2022-12-04T21:31:40.706Z,3.95
2022-12-04T21:34:13.696Z,3.91
2022-12-04T21:36:42.534Z,3.93
2022-12-04T21:39:11.438Z,3.95
2022-12-04T21:41:57.257Z,3.92
2022-12-04T21:44:26.851Z,3.87
2022-12-04T21:46:55.037Z,3.89
2022-12-04T21:49:23.638Z,3.88
2022-12-04T21:51:59.505Z,3.94
2022-12-04T21:54:28.950Z,3.90
2022-12-04T21:56:57.750Z,3.92
2022-12-04T21:59:27.955Z,3.94
2022-12-04T22:01:56.266Z,3.89
2022-12-04T22:04:24.423Z,3.92
2022-12-04T22:06:52.593Z,3.95
2022-12-04T22:09:26.110Z,3.92
2022-12-04T22:11:54.339Z,3.95
2022-12-04T22:14:22.427Z,4.02
2022-12-04T22:16:53.082Z,4.04
2022-12-04T22:19:21.370Z,4.03
2022-12-04T22:21:49.674Z,4.01
2022-12-04T22:24:17.865Z,3.95
2022-12-04T22:26:45.927Z,3.94
2022-12-04T22:29:41.916Z,3.92
2022-12-04T22:32:03.601Z,3.88
2022-12-04T22:34:31.921Z,3.86
2022-12-04T22:37:00.117Z,3.81
2022-12-04T22:39:28.476Z,3.75
2022-12-04T22:41:56.506Z,3.80
2022-12-04T22:44:24.593Z,3.72
2022-12-04T22:46:52.783Z,3.79
2022-12-04T22:49:22.908Z,3.80
2022-12-04T22:51:51.001Z,3.77
2022-12-04T22:54:19.091Z,3.80
2022-12-04T22:56:47.278Z,3.76
2022-12-04T22:59:15.536Z,3.74
2022-12-04T23:01:43.608Z,3.83
2022-12-04T23:04:11.776Z,3.79
2022-12-04T23:06:41.517Z,3.79
2022-12-04T23:09:12.788Z,3.79
2022-12-04T23:11:41.513Z,3.82
2022-12-04T23:14:12.517Z,3.82
2022-12-04T23:16:41.388Z,3.78
2022-12-04T23:19:14.041Z,3.78
2022-12-04T23:21:44.680Z,3.79
2022-12-04T23:24:13.867Z,3.75
2022-12-04T23:26:44.213Z,3.78
2022-12-04T23:29:36.859Z,3.69
2022-12-04T23:32:00.700Z,3.73
2022-12-04T23:34:29.352Z,3.72
2022-12-04T23:36:58.892Z,3.72
2022-12-04T23:39:27.193Z,3.73
2022-12-04T23:41:55.381Z,3.70
2022-12-04T23:44:23.554Z,3.76
2022-12-04T23:46:51.707Z,3.73
2022-12-04T23:49:19.968Z,3.74
2022-12-04T23:51:48.067Z,3.77
2022-12-04T23:54:17.577Z,3.82
2022-12-04T23:56:46.070Z,3.80
2022-12-04T23:59:14.286Z,3.83
